sensor_id;sensor_type;location;lat;lon;timestamp;P1;durP1;ratioP1;P2;durP2;ratioP2
31674;SDS011;18276;45.520;11.018;2022-12-18T00:01:29;22.73;;;12.38;;
31674;SDS011;18276;45.520;11.018;2022-12-18T00:04:02;18.95;;;11.50;;
31674;SDS011;18276;45.520;11.018;2022-12-18T00:06:31;16.63;;;12.38;;
31674;SDS011;18276;45.520;11.018;2022-12-18T00:08:59;17.95;;;11.98;;
31674;SDS011;18276;45.520;11.018;2022-12-18T00:11:28;15.95;;;11.05;;
31674;SDS011;18276;45.520;11.018;2022-12-18T00:13:57;19.13;;;12.32;;
31674;SDS011;18276;45.520;11.018;2022-12-18T00:16:26;20.00;;;12.95;;
31674;SDS011;18276;45.520;11.018;2022-12-18T00:18:56;20.60;;;12.73;;
31674;SDS011;18276;45.520;11.018;2022-12-18T00:21:23;19.63;;;12.82;;
31674;SDS011;18276;45.520;11.018;2022-12-18T00:23:51;17.63;;;11.93;;
31674;SDS011;18276;45.520;11.018;2022-12-18T00:26:28;23.40;;;12.32;;
31674;SDS011;18276;45.520;11.018;2022-12-18T00:28:59;21.13;;;12.27;;
31674;SDS011;18276;45.520;11.018;2022-12-18T00:31:42;18.70;;;12.65;;
31674;SDS011;18276;45.520;11.018;2022-12-18T00:34:10;18.50;;;11.25;;
31674;SDS011;18276;45.520;11.018;2022-12-18T00:36:39;19.83;;;11.82;;
31674;SDS011;18276;45.520;11.018;2022-12-18T00:39:07;21.20;;;11.85;;
31674;SDS011;18276;45.520;11.018;2022-12-18T00:41:34;18.05;;;12.05;;
31674;SDS011;18276;45.520;11.018;2022-12-18T00:44:36;19.52;;;12.32;;
31674;SDS011;18276;45.520;11.018;2022-12-18T00:47:03;21.17;;;12.27;;
31674;SDS011;18276;45.520;11.018;2022-12-18T00:49:31;19.08;;;11.45;;
31674;SDS011;18276;45.520;11.018;2022-12-18T00:51:57;17.25;;;11.43;;
31674;SDS011;18276;45.520;11.018;2022-12-18T00:54:24;18.83;;;11.82;;
31674;SDS011;18276;45.520;11.018;2022-12-18T00:56:51;19.65;;;11.85;;
31674;SDS011;18276;45.520;11.018;2022-12-18T00:59:19;23.10;;;11.10;;
31674;SDS011;18276;45.520;11.018;2022-12-18T01:01:46;16.80;;;11.00;;
31674;SDS011;18276;45.520;11.018;2022-12-18T01:04:14;16.88;;;11.10;;
31674;SDS011;18276;45.520;11.018;2022-12-18T01:06:44;18.63;;;11.68;;
31674;SDS011;18276;45.520;11.018;2022-12-18T01:09:12;27.08;;;12.85;;
31674;SDS011;18276;45.520;11.018;2022-12-18T01:11:39;20.58;;;12.40;;
31674;SDS011;18276;45.520;11.018;2022-12-18T01:14:06;19.10;;;11.75;;
31674;SDS011;18276;45.520;11.018;2022-12-18T01:16:36;18.55;;;12.52;;
31674;SDS011;18276;45.520;11.018;2022-12-18T01:19:03;21.63;;;12.98;;
31674;SDS011;18276;45.520;11.018;2022-12-18T01:21:31;21.95;;;12.50;;
31674;SDS011;18276;45.520;11.018;2022-12-18T01:24:02;18.60;;;11.70;;
31674;SDS011;18276;45.520;11.018;2022-12-18T01:26:30;22.95;;;12.63;;
31674;SDS011;18276;45.520;11.018;2022-12-18T01:28:58;20.65;;;12.65;;
31674;SDS011;18276;45.520;11.018;2022-12-18T01:31:29;22.42;;;12.57;;
31674;SDS011;18276;45.520;11.018;2022-12-18T01:33:59;22.88;;;13.23;;
31674;SDS011;18276;45.520;11.018;2022-12-18T01:36:29;24.77;;;12.35;;
31674;SDS011;18276;45.520;11.018;2022-12-18T01:38:59;21.42;;;12.63;;
31674;SDS011;18276;45.520;11.018;2022-12-18T01:41:27;20.42;;;12.15;;
31674;SDS011;18276;45.520;11.018;2022-12-18T01:47:21;22.48;;;12.07;;
31674;SDS011;18276;45.520;11.018;2022-12-18T01:49:53;18.92;;;12.50;;
31674;SDS011;18276;45.520;11.018;2022-12-18T01:52:22;18.80;;;11.80;;
31674;SDS011;18276;45.520;11.018;2022-12-18T01:54:52;17.10;;;11.65;;
31674;SDS011;18276;45.520;11.018;2022-12-18T01:57:19;18.50;;;12.35;;
31674;SDS011;18276;45.520;11.018;2022-12-18T01:59:48;18.10;;;12.27;;
31674;SDS011;18276;45.520;11.018;2022-12-18T02:02:19;20.30;;;13.10;;
31674;SDS011;18276;45.520;11.018;2022-12-18T02:04:47;18.60;;;12.63;;
31674;SDS011;18276;45.520;11.018;2022-12-18T02:10:00;20.20;;;12.18;;
31674;SDS011;18276;45.520;11.018;2022-12-18T02:12:53;23.80;;;12.52;;
31674;SDS011;18276;45.520;11.018;2022-12-18T02:15:44;19.50;;;12.05;;
31674;SDS011;18276;45.520;11.018;2022-12-18T02:18:26;22.65;;;12.52;;
31674;SDS011;18276;45.520;11.018;2022-12-18T02:23:50;21.75;;;12.05;;
31674;SDS011;18276;45.520;11.018;2022-12-18T02:26:34;21.45;;;12.95;;
31674;SDS011;18276;45.520;11.018;2022-12-18T02:29:06;22.27;;;13.07;;
31674;SDS011;18276;45.520;11.018;2022-12-18T02:31:39;18.55;;;12.52;;
31674;SDS011;18276;45.520;11.018;2022-12-18T02:34:18;18.45;;;12.60;;
31674;SDS011;18276;45.520;11.018;2022-12-18T02:36:48;23.73;;;14.38;;
31674;SDS011;18276;45.520;11.018;2022-12-18T02:39:17;26.50;;;14.68;;
31674;SDS011;18276;45.520;11.018;2022-12-18T02:41:57;30.20;;;18.90;;
31674;SDS011;18276;45.520;11.018;2022-12-18T02:44:25;31.50;;;17.95;;
31674;SDS011;18276;45.520;11.018;2022-12-18T02:46:54;32.47;;;18.13;;
31674;SDS011;18276;45.520;11.018;2022-12-18T02:55:15;66.22;;;33.20;;
31674;SDS011;18276;45.520;11.018;2022-12-18T03:00:39;61.20;;;29.20;;
31674;SDS011;18276;45.520;11.018;2022-12-18T03:03:19;89.45;;;41.47;;
31674;SDS011;18276;45.520;11.018;2022-12-18T03:06:07;45.60;;;23.55;;
31674;SDS011;18276;45.520;11.018;2022-12-18T03:08:40;40.83;;;21.95;;
31674;SDS011;18276;45.520;11.018;2022-12-18T03:11:16;25.65;;;15.95;;
31674;SDS011;18276;45.520;11.018;2022-12-18T03:14:04;43.28;;;21.08;;
31674;SDS011;18276;45.520;11.018;2022-12-18T03:16:33;29.38;;;15.95;;
31674;SDS011;18276;45.520;11.018;2022-12-18T03:19:05;32.40;;;18.40;;
31674;SDS011;18276;45.520;11.018;2022-12-18T03:21:40;32.45;;;19.42;;
31674;SDS011;18276;45.520;11.018;2022-12-18T03:24:12;27.52;;;17.50;;
31674;SDS011;18276;45.520;11.018;2022-12-18T03:26:42;36.03;;;21.33;;
31674;SDS011;18276;45.520;11.018;2022-12-18T03:29:16;30.58;;;17.17;;
31674;SDS011;18276;45.520;11.018;2022-12-18T03:32:06;33.88;;;18.23;;
31674;SDS011;18276;45.520;11.018;2022-12-18T03:34:37;35.03;;;17.17;;
31674;SDS011;18276;45.520;11.018;2022-12-18T03:37:10;26.85;;;16.08;;
31674;SDS011;18276;45.520;11.018;2022-12-18T03:39:37;33.60;;;19.63;;
31674;SDS011;18276;45.520;11.018;2022-12-18T03:42:13;37.45;;;19.83;;
31674;SDS011;18276;45.520;11.018;2022-12-18T03:45:06;33.72;;;17.63;;
31674;SDS011;18276;45.520;11.018;2022-12-18T03:51:15;47.40;;;18.10;;
31674;SDS011;18276;45.520;11.018;2022-12-18T03:53:39;32.78;;;16.50;;
31674;SDS011;18276;45.520;11.018;2022-12-18T03:56:22;28.48;;;15.00;;
31674;SDS011;18276;45.520;11.018;2022-12-18T03:58:54;25.40;;;14.63;;
31674;SDS011;18276;45.520;11.018;2022-12-18T04:01:27;26.17;;;15.38;;
31674;SDS011;18276;45.520;11.018;2022-12-18T04:03:59;24.38;;;14.13;;
31674;SDS011;18276;45.520;11.018;2022-12-18T04:06:31;27.63;;;13.60;;
31674;SDS011;18276;45.520;11.018;2022-12-18T04:09:00;22.85;;;13.38;;
31674;SDS011;18276;45.520;11.018;2022-12-18T04:11:29;22.38;;;14.45;;
31674;SDS011;18276;45.520;11.018;2022-12-18T04:13:58;24.88;;;15.02;;
31674;SDS011;18276;45.520;11.018;2022-12-18T04:16:30;24.15;;;14.98;;
31674;SDS011;18276;45.520;11.018;2022-12-18T04:19:01;24.77;;;14.48;;
31674;SDS011;18276;45.520;11.018;2022-12-18T04:21:33;25.27;;;14.30;;
31674;SDS011;18276;45.520;11.018;2022-12-18T04:24:00;28.13;;;15.90;;
31674;SDS011;18276;45.520;11.018;2022-12-18T04:26:29;22.25;;;14.30;;
31674;SDS011;18276;45.520;11.018;2022-12-18T04:29:16;23.38;;;14.85;;
31674;SDS011;18276;45.520;11.018;2022-12-18T04:31:43;24.27;;;15.32;;
31674;SDS011;18276;45.520;11.018;2022-12-18T04:34:10;26.63;;;14.85;;
31674;SDS011;18276;45.520;11.018;2022-12-18T04:36:44;23.58;;;14.07;;
31674;SDS011;18276;45.520;11.018;2022-12-18T04:39:12;27.17;;;14.13;;
31674;SDS011;18276;45.520;11.018;2022-12-18T04:41:40;22.85;;;14.20;;
31674;SDS011;18276;45.520;11.018;2022-12-18T04:44:08;26.05;;;15.30;;
31674;SDS011;18276;45.520;11.018;2022-12-18T04:46:35;27.45;;;16.50;;
31674;SDS011;18276;45.520;11.018;2022-12-18T04:49:02;23.40;;;14.45;;
31674;SDS011;18276;45.520;11.018;2022-12-18T04:51:29;24.17;;;13.80;;
31674;SDS011;18276;45.520;11.018;2022-12-18T04:53:56;26.83;;;14.95;;
31674;SDS011;18276;45.520;11.018;2022-12-18T04:56:23;24.65;;;15.55;;
31674;SDS011;18276;45.520;11.018;2022-12-18T04:58:50;26.63;;;15.73;;
31674;SDS011;18276;45.520;11.018;2022-12-18T05:01:18;27.40;;;15.38;;
31674;SDS011;18276;45.520;11.018;2022-12-18T05:03:45;29.85;;;15.23;;
31674;SDS011;18276;45.520;11.018;2022-12-18T05:06:12;24.75;;;15.15;;
31674;SDS011;18276;45.520;11.018;2022-12-18T05:08:39;23.10;;;14.40;;
31674;SDS011;18276;45.520;11.018;2022-12-18T05:11:07;25.70;;;15.68;;
31674;SDS011;18276;45.520;11.018;2022-12-18T05:13:36;24.17;;;15.45;;
31674;SDS011;18276;45.520;11.018;2022-12-18T05:16:05;28.60;;;16.08;;
31674;SDS011;18276;45.520;11.018;2022-12-18T05:18:33;25.95;;;15.65;;
31674;SDS011;18276;45.520;11.018;2022-12-18T05:21:00;32.40;;;16.52;;
31674;SDS011;18276;45.520;11.018;2022-12-18T05:23:29;24.70;;;14.82;;
31674;SDS011;18276;45.520;11.018;2022-12-18T05:25:57;26.73;;;14.25;;
31674;SDS011;18276;45.520;11.018;2022-12-18T05:28:27;28.33;;;15.68;;
31674;SDS011;18276;45.520;11.018;2022-12-18T05:30:56;29.33;;;16.75;;
31674;SDS011;18276;45.520;11.018;2022-12-18T05:33:25;24.88;;;14.48;;
31674;SDS011;18276;45.520;11.018;2022-12-18T05:35:56;30.30;;;15.98;;
31674;SDS011;18276;45.520;11.018;2022-12-18T05:38:25;23.55;;;14.52;;
31674;SDS011;18276;45.520;11.018;2022-12-18T05:40:53;23.98;;;15.27;;
31674;SDS011;18276;45.520;11.018;2022-12-18T05:43:21;26.33;;;14.90;;
31674;SDS011;18276;45.520;11.018;2022-12-18T05:45:48;28.13;;;15.00;;
31674;SDS011;18276;45.520;11.018;2022-12-18T05:48:16;28.15;;;15.48;;
31674;SDS011;18276;45.520;11.018;2022-12-18T05:50:44;28.42;;;15.95;;
31674;SDS011;18276;45.520;11.018;2022-12-18T05:53:13;25.05;;;15.45;;
31674;SDS011;18276;45.520;11.018;2022-12-18T05:55:42;26.33;;;14.85;;
31674;SDS011;18276;45.520;11.018;2022-12-18T05:58:10;25.83;;;15.20;;
31674;SDS011;18276;45.520;11.018;2022-12-18T06:00:39;26.25;;;15.48;;
31674;SDS011;18276;45.520;11.018;2022-12-18T06:03:08;25.13;;;14.70;;
31674;SDS011;18276;45.520;11.018;2022-12-18T06:05:37;22.63;;;14.23;;
31674;SDS011;18276;45.520;11.018;2022-12-18T06:08:05;24.80;;;16.05;;
31674;SDS011;18276;45.520;11.018;2022-12-18T06:10:33;25.77;;;13.80;;
31674;SDS011;18276;45.520;11.018;2022-12-18T06:13:00;25.27;;;14.82;;
31674;SDS011;18276;45.520;11.018;2022-12-18T06:15:27;22.73;;;14.88;;
31674;SDS011;18276;45.520;11.018;2022-12-18T06:17:54;27.35;;;17.13;;
31674;SDS011;18276;45.520;11.018;2022-12-18T06:20:22;26.45;;;15.90;;
31674;SDS011;18276;45.520;11.018;2022-12-18T06:22:52;25.10;;;15.43;;
31674;SDS011;18276;45.520;11.018;2022-12-18T06:25:19;25.98;;;15.48;;
31674;SDS011;18276;45.520;11.018;2022-12-18T06:27:47;26.92;;;15.35;;
31674;SDS011;18276;45.520;11.018;2022-12-18T06:30:14;33.45;;;17.60;;
31674;SDS011;18276;45.520;11.018;2022-12-18T06:32:41;26.50;;;15.70;;
31674;SDS011;18276;45.520;11.018;2022-12-18T06:35:09;25.30;;;16.52;;
31674;SDS011;18276;45.520;11.018;2022-12-18T06:37:36;27.23;;;15.90;;
31674;SDS011;18276;45.520;11.018;2022-12-18T06:40:03;26.60;;;16.75;;
31674;SDS011;18276;45.520;11.018;2022-12-18T06:42:31;27.02;;;15.35;;
31674;SDS011;18276;45.520;11.018;2022-12-18T06:44:58;27.80;;;16.90;;
31674;SDS011;18276;45.520;11.018;2022-12-18T06:47:28;29.33;;;15.38;;
31674;SDS011;18276;45.520;11.018;2022-12-18T06:49:55;28.45;;;15.05;;
31674;SDS011;18276;45.520;11.018;2022-12-18T06:52:23;28.23;;;16.08;;
31674;SDS011;18276;45.520;11.018;2022-12-18T06:54:50;29.95;;;16.20;;
31674;SDS011;18276;45.520;11.018;2022-12-18T06:57:17;28.42;;;15.80;;
31674;SDS011;18276;45.520;11.018;2022-12-18T06:59:44;28.13;;;15.88;;
31674;SDS011;18276;45.520;11.018;2022-12-18T07:02:11;30.02;;;17.50;;
31674;SDS011;18276;45.520;11.018;2022-12-18T07:04:39;31.27;;;17.23;;
31674;SDS011;18276;45.520;11.018;2022-12-18T07:07:06;28.33;;;18.00;;
31674;SDS011;18276;45.520;11.018;2022-12-18T07:09:33;30.33;;;18.08;;
31674;SDS011;18276;45.520;11.018;2022-12-18T07:12:00;35.15;;;18.55;;
31674;SDS011;18276;45.520;11.018;2022-12-18T07:14:27;27.33;;;17.10;;
31674;SDS011;18276;45.520;11.018;2022-12-18T07:16:55;29.85;;;17.83;;
31674;SDS011;18276;45.520;11.018;2022-12-18T07:19:22;31.60;;;16.98;;
31674;SDS011;18276;45.520;11.018;2022-12-18T07:21:49;36.97;;;19.13;;
31674;SDS011;18276;45.520;11.018;2022-12-18T07:24:17;31.70;;;17.27;;
31674;SDS011;18276;45.520;11.018;2022-12-18T07:26:47;31.83;;;17.13;;
31674;SDS011;18276;45.520;11.018;2022-12-18T07:29:15;28.23;;;17.45;;
31674;SDS011;18276;45.520;11.018;2022-12-18T07:31:42;32.95;;;17.52;;
31674;SDS011;18276;45.520;11.018;2022-12-18T07:34:13;35.22;;;17.52;;
31674;SDS011;18276;45.520;11.018;2022-12-18T07:36:41;29.80;;;17.45;;
31674;SDS011;18276;45.520;11.018;2022-12-18T07:39:10;28.45;;;16.85;;
31674;SDS011;18276;45.520;11.018;2022-12-18T07:41:37;28.40;;;15.80;;
31674;SDS011;18276;45.520;11.018;2022-12-18T07:44:12;24.67;;;14.07;;
31674;SDS011;18276;45.520;11.018;2022-12-18T07:46:39;25.48;;;14.10;;
31674;SDS011;18276;45.520;11.018;2022-12-18T07:49:06;25.00;;;15.02;;
31674;SDS011;18276;45.520;11.018;2022-12-18T07:51:33;21.13;;;14.30;;
31674;SDS011;18276;45.520;11.018;2022-12-18T07:54:00;25.00;;;15.32;;
31674;SDS011;18276;45.520;11.018;2022-12-18T07:56:27;30.02;;;15.75;;
31674;SDS011;18276;45.520;11.018;2022-12-18T07:58:57;25.33;;;15.93;;
31674;SDS011;18276;45.520;11.018;2022-12-18T08:01:25;25.30;;;14.27;;
31674;SDS011;18276;45.520;11.018;2022-12-18T08:03:53;26.73;;;16.10;;
31674;SDS011;18276;45.520;11.018;2022-12-18T08:06:20;26.42;;;15.80;;
31674;SDS011;18276;45.520;11.018;2022-12-18T08:08:52;27.27;;;16.65;;
31674;SDS011;18276;45.520;11.018;2022-12-18T08:11:21;27.10;;;16.00;;
31674;SDS011;18276;45.520;11.018;2022-12-18T08:13:49;25.20;;;14.82;;
31674;SDS011;18276;45.520;11.018;2022-12-18T08:16:16;25.30;;;15.23;;
31674;SDS011;18276;45.520;11.018;2022-12-18T08:18:44;29.27;;;16.80;;
31674;SDS011;18276;45.520;11.018;2022-12-18T08:23:41;30.75;;;16.88;;
31674;SDS011;18276;45.520;11.018;2022-12-18T08:26:12;26.88;;;16.23;;
31674;SDS011;18276;45.520;11.018;2022-12-18T08:28:40;27.88;;;15.40;;
31674;SDS011;18276;45.520;11.018;2022-12-18T08:31:07;27.80;;;15.55;;
31674;SDS011;18276;45.520;11.018;2022-12-18T08:33:35;28.80;;;15.80;;
31674;SDS011;18276;45.520;11.018;2022-12-18T08:36:04;27.38;;;16.70;;
31674;SDS011;18276;45.520;11.018;2022-12-18T08:38:32;29.42;;;16.83;;
31674;SDS011;18276;45.520;11.018;2022-12-18T08:41:00;25.58;;;17.55;;
31674;SDS011;18276;45.520;11.018;2022-12-18T08:43:28;29.05;;;17.38;;
31674;SDS011;18276;45.520;11.018;2022-12-18T08:46:14;28.63;;;17.48;;
31674;SDS011;18276;45.520;11.018;2022-12-18T08:48:41;29.55;;;17.00;;
31674;SDS011;18276;45.520;11.018;2022-12-18T08:51:08;34.33;;;18.55;;
31674;SDS011;18276;45.520;11.018;2022-12-18T08:53:38;36.03;;;19.02;;
31674;SDS011;18276;45.520;11.018;2022-12-18T08:56:05;31.23;;;17.80;;
31674;SDS011;18276;45.520;11.018;2022-12-18T08:58:32;30.88;;;18.50;;
31674;SDS011;18276;45.520;11.018;2022-12-18T09:01:03;33.35;;;17.92;;
31674;SDS011;18276;45.520;11.018;2022-12-18T09:03:33;30.75;;;17.55;;
31674;SDS011;18276;45.520;11.018;2022-12-18T09:06:00;24.75;;;14.60;;
31674;SDS011;18276;45.520;11.018;2022-12-18T09:08:28;55.33;;;43.35;;
31674;SDS011;18276;45.520;11.018;2022-12-18T09:10:55;22.70;;;13.98;;
31674;SDS011;18276;45.520;11.018;2022-12-18T09:13:23;19.98;;;13.07;;
31674;SDS011;18276;45.520;11.018;2022-12-18T09:15:51;16.65;;;11.77;;
31674;SDS011;18276;45.520;11.018;2022-12-18T09:18:20;20.55;;;13.65;;
31674;SDS011;18276;45.520;11.018;2022-12-18T09:20:48;23.67;;;15.60;;
31674;SDS011;18276;45.520;11.018;2022-12-18T09:23:19;18.98;;;13.07;;
31674;SDS011;18276;45.520;11.018;2022-12-18T09:25:47;21.60;;;13.60;;
31674;SDS011;18276;45.520;11.018;2022-12-18T09:28:15;19.77;;;12.43;;
31674;SDS011;18276;45.520;11.018;2022-12-18T09:30:45;17.70;;;12.25;;
31674;SDS011;18276;45.520;11.018;2022-12-18T09:33:14;18.17;;;12.32;;
31674;SDS011;18276;45.520;11.018;2022-12-18T09:35:41;16.20;;;11.55;;
31674;SDS011;18276;45.520;11.018;2022-12-18T09:38:11;20.73;;;13.02;;
31674;SDS011;18276;45.520;11.018;2022-12-18T09:40:41;17.65;;;11.20;;
31674;SDS011;18276;45.520;11.018;2022-12-18T09:43:13;16.35;;;11.18;;
31674;SDS011;18276;45.520;11.018;2022-12-18T09:45:59;17.50;;;11.93;;
31674;SDS011;18276;45.520;11.018;2022-12-18T09:48:36;14.93;;;10.88;;
31674;SDS011;18276;45.520;11.018;2022-12-18T09:51:14;23.50;;;12.75;;
31674;SDS011;18276;45.520;11.018;2022-12-18T09:53:46;19.38;;;13.07;;
31674;SDS011;18276;45.520;11.018;2022-12-18T09:56:19;18.17;;;12.68;;
31674;SDS011;18276;45.520;11.018;2022-12-18T09:58:51;16.30;;;11.65;;
31674;SDS011;18276;45.520;11.018;2022-12-18T10:01:23;18.77;;;12.63;;
31674;SDS011;18276;45.520;11.018;2022-12-18T10:04:00;16.85;;;11.45;;
31674;SDS011;18276;45.520;11.018;2022-12-18T10:06:35;15.25;;;11.63;;
31674;SDS011;18276;45.520;11.018;2022-12-18T10:17:14;21.02;;;13.27;;
31674;SDS011;18276;45.520;11.018;2022-12-18T10:22:35;17.15;;;13.30;;
31674;SDS011;18276;45.520;11.018;2022-12-18T10:25:27;17.85;;;12.40;;
31674;SDS011;18276;45.520;11.018;2022-12-18T10:28:15;17.80;;;12.88;;
31674;SDS011;18276;45.520;11.018;2022-12-18T10:30:44;31.35;;;18.80;;
31674;SDS011;18276;45.520;11.018;2022-12-18T10:33:12;20.83;;;14.52;;
31674;SDS011;18276;45.520;11.018;2022-12-18T10:35:42;17.73;;;13.60;;
31674;SDS011;18276;45.520;11.018;2022-12-18T10:40:57;16.52;;;12.85;;
31674;SDS011;18276;45.520;11.018;2022-12-18T10:43:30;15.68;;;11.82;;
31674;SDS011;18276;45.520;11.018;2022-12-18T10:48:29;19.90;;;13.48;;
31674;SDS011;18276;45.520;11.018;2022-12-18T10:50:57;17.38;;;13.75;;
31674;SDS011;18276;45.520;11.018;2022-12-18T10:53:38;16.83;;;13.20;;
31674;SDS011;18276;45.520;11.018;2022-12-18T10:56:07;18.00;;;13.40;;
31674;SDS011;18276;45.520;11.018;2022-12-18T10:58:35;17.23;;;13.23;;
31674;SDS011;18276;45.520;11.018;2022-12-18T11:01:12;15.88;;;12.55;;
31674;SDS011;18276;45.520;11.018;2022-12-18T11:03:44;15.60;;;11.98;;
31674;SDS011;18276;45.520;11.018;2022-12-18T11:06:14;16.63;;;12.43;;
31674;SDS011;18276;45.520;11.018;2022-12-18T11:08:43;15.48;;;12.20;;
31674;SDS011;18276;45.520;11.018;2022-12-18T11:11:23;15.40;;;13.25;;
31674;SDS011;18276;45.520;11.018;2022-12-18T11:14:13;14.77;;;11.95;;
31674;SDS011;18276;45.520;11.018;2022-12-18T11:16:57;16.42;;;13.13;;
31674;SDS011;18276;45.520;11.018;2022-12-18T11:19:46;14.93;;;12.70;;
31674;SDS011;18276;45.520;11.018;2022-12-18T11:22:33;14.70;;;12.40;;
31674;SDS011;18276;45.520;11.018;2022-12-18T11:25:06;14.35;;;11.68;;
31674;SDS011;18276;45.520;11.018;2022-12-18T11:27:59;16.23;;;12.70;;
31674;SDS011;18276;45.520;11.018;2022-12-18T11:30:32;15.98;;;13.27;;
31674;SDS011;18276;45.520;11.018;2022-12-18T11:33:05;16.67;;;12.25;;
31674;SDS011;18276;45.520;11.018;2022-12-18T11:35:41;13.55;;;11.50;;
31674;SDS011;18276;45.520;11.018;2022-12-18T11:38:17;15.13;;;12.85;;
31674;SDS011;18276;45.520;11.018;2022-12-18T11:40:51;13.93;;;11.65;;
31674;SDS011;18276;45.520;11.018;2022-12-18T11:43:31;16.08;;;12.07;;
31674;SDS011;18276;45.520;11.018;2022-12-18T11:46:23;13.85;;;11.50;;
31674;SDS011;18276;45.520;11.018;2022-12-18T11:49:01;13.27;;;11.90;;
31674;SDS011;18276;45.520;11.018;2022-12-18T11:51:38;15.68;;;13.50;;
31674;SDS011;18276;45.520;11.018;2022-12-18T11:54:12;16.92;;;13.25;;
31674;SDS011;18276;45.520;11.018;2022-12-18T12:05:20;14.82;;;12.73;;
31674;SDS011;18276;45.520;11.018;2022-12-18T12:16:02;16.00;;;13.23;;
31674;SDS011;18276;45.520;11.018;2022-12-18T12:21:43;16.73;;;12.93;;
31674;SDS011;18276;45.520;11.018;2022-12-18T12:29:55;16.85;;;13.90;;
31674;SDS011;18276;45.520;11.018;2022-12-18T12:32:45;16.85;;;13.88;;
31674;SDS011;18276;45.520;11.018;2022-12-18T12:35:32;16.30;;;13.98;;
31674;SDS011;18276;45.520;11.018;2022-12-18T12:41:00;19.33;;;15.70;;
31674;SDS011;18276;45.520;11.018;2022-12-18T12:46:04;18.05;;;14.93;;
31674;SDS011;18276;45.520;11.018;2022-12-18T12:51:21;17.67;;;14.90;;
31674;SDS011;18276;45.520;11.018;2022-12-18T12:53:52;17.85;;;15.32;;
31674;SDS011;18276;45.520;11.018;2022-12-18T12:56:24;19.60;;;15.98;;
31674;SDS011;18276;45.520;11.018;2022-12-18T12:59:16;20.73;;;16.35;;
31674;SDS011;18276;45.520;11.018;2022-12-18T13:02:10;21.40;;;16.25;;
31674;SDS011;18276;45.520;11.018;2022-12-18T13:04:49;17.33;;;14.90;;
31674;SDS011;18276;45.520;11.018;2022-12-18T13:07:38;23.73;;;18.75;;
31674;SDS011;18276;45.520;11.018;2022-12-18T13:13:10;19.80;;;15.70;;
31674;SDS011;18276;45.520;11.018;2022-12-18T13:16:05;20.33;;;15.82;;
31674;SDS011;18276;45.520;11.018;2022-12-18T13:18:34;20.25;;;16.20;;
31674;SDS011;18276;45.520;11.018;2022-12-18T13:21:04;20.48;;;17.38;;
31674;SDS011;18276;45.520;11.018;2022-12-18T13:23:45;22.95;;;16.33;;
31674;SDS011;18276;45.520;11.018;2022-12-18T13:33:42;17.90;;;15.60;;
31674;SDS011;18276;45.520;11.018;2022-12-18T13:36:33;21.27;;;16.40;;
31674;SDS011;18276;45.520;11.018;2022-12-18T13:42:37;20.63;;;16.35;;
31674;SDS011;18276;45.520;11.018;2022-12-18T13:44:38;19.30;;;14.65;;
31674;SDS011;18276;45.520;11.018;2022-12-18T13:47:25;16.60;;;13.77;;
31674;SDS011;18276;45.520;11.018;2022-12-18T13:49:57;21.33;;;14.75;;
31674;SDS011;18276;45.520;11.018;2022-12-18T13:52:25;22.00;;;16.02;;
31674;SDS011;18276;45.520;11.018;2022-12-18T13:54:55;23.10;;;17.83;;
31674;SDS011;18276;45.520;11.018;2022-12-18T13:57:31;27.70;;;18.48;;
31674;SDS011;18276;45.520;11.018;2022-12-18T14:02:55;17.85;;;14.00;;
31674;SDS011;18276;45.520;11.018;2022-12-18T14:05:31;19.73;;;14.75;;
31674;SDS011;18276;45.520;11.018;2022-12-18T14:08:03;21.42;;;15.15;;
31674;SDS011;18276;45.520;11.018;2022-12-18T14:10:34;23.30;;;15.98;;
31674;SDS011;18276;45.520;11.018;2022-12-18T14:13:20;30.95;;;17.73;;
31674;SDS011;18276;45.520;11.018;2022-12-18T14:15:54;51.78;;;28.67;;
31674;SDS011;18276;45.520;11.018;2022-12-18T14:18:46;18.98;;;12.82;;
31674;SDS011;18276;45.520;11.018;2022-12-18T14:21:22;17.67;;;12.70;;
31674;SDS011;18276;45.520;11.018;2022-12-18T14:24:04;16.63;;;11.95;;
31674;SDS011;18276;45.520;11.018;2022-12-18T14:26:35;13.48;;;10.13;;
31674;SDS011;18276;45.520;11.018;2022-12-18T14:32:06;16.88;;;11.98;;
31674;SDS011;18276;45.520;11.018;2022-12-18T14:34:50;19.15;;;12.43;;
31674;SDS011;18276;45.520;11.018;2022-12-18T14:37:21;17.88;;;11.32;;
31674;SDS011;18276;45.520;11.018;2022-12-18T14:39:58;16.05;;;11.02;;
31674;SDS011;18276;45.520;11.018;2022-12-18T14:42:36;14.95;;;10.68;;
31674;SDS011;18276;45.520;11.018;2022-12-18T14:48:08;15.65;;;10.68;;
31674;SDS011;18276;45.520;11.018;2022-12-18T14:51:02;17.15;;;11.43;;
31674;SDS011;18276;45.520;11.018;2022-12-18T14:56:23;20.52;;;12.75;;
31674;SDS011;18276;45.520;11.018;2022-12-18T14:58:56;24.00;;;14.65;;
31674;SDS011;18276;45.520;11.018;2022-12-18T15:01:28;20.10;;;11.80;;
31674;SDS011;18276;45.520;11.018;2022-12-18T15:03:59;15.65;;;11.40;;
31674;SDS011;18276;45.520;11.018;2022-12-18T15:06:35;16.88;;;12.68;;
31674;SDS011;18276;45.520;11.018;2022-12-18T15:09:04;27.85;;;16.00;;
31674;SDS011;18276;45.520;11.018;2022-12-18T15:11:47;23.58;;;14.30;;
31674;SDS011;18276;45.520;11.018;2022-12-18T15:14:24;23.80;;;14.02;;
31674;SDS011;18276;45.520;11.018;2022-12-18T15:17:19;21.83;;;13.50;;
31674;SDS011;18276;45.520;11.018;2022-12-18T15:19:53;31.25;;;16.10;;
31674;SDS011;18276;45.520;11.018;2022-12-18T15:22:30;31.77;;;14.38;;
31674;SDS011;18276;45.520;11.018;2022-12-18T15:25:01;21.60;;;13.35;;
31674;SDS011;18276;45.520;11.018;2022-12-18T15:27:31;28.60;;;15.60;;
31674;SDS011;18276;45.520;11.018;2022-12-18T15:32:35;50.72;;;27.00;;
31674;SDS011;18276;45.520;11.018;2022-12-18T15:35:12;38.78;;;21.13;;
31674;SDS011;18276;45.520;11.018;2022-12-18T15:37:40;44.33;;;24.05;;
31674;SDS011;18276;45.520;11.018;2022-12-18T15:40:12;57.28;;;24.95;;
31674;SDS011;18276;45.520;11.018;2022-12-18T15:42:43;34.85;;;20.27;;
31674;SDS011;18276;45.520;11.018;2022-12-18T15:45:29;51.80;;;20.50;;
31674;SDS011;18276;45.520;11.018;2022-12-18T15:47:56;41.05;;;22.15;;
31674;SDS011;18276;45.520;11.018;2022-12-18T15:50:23;23.17;;;14.48;;
31674;SDS011;18276;45.520;11.018;2022-12-18T15:52:51;36.92;;;16.08;;
31674;SDS011;18276;45.520;11.018;2022-12-18T15:55:21;27.35;;;16.60;;
31674;SDS011;18276;45.520;11.018;2022-12-18T15:58:08;26.77;;;15.38;;
31674;SDS011;18276;45.520;11.018;2022-12-18T16:00:38;29.05;;;16.58;;
31674;SDS011;18276;45.520;11.018;2022-12-18T16:03:06;22.95;;;13.50;;
31674;SDS011;18276;45.520;11.018;2022-12-18T16:05:35;25.30;;;14.40;;
31674;SDS011;18276;45.520;11.018;2022-12-18T16:08:02;33.30;;;20.05;;
31674;SDS011;18276;45.520;11.018;2022-12-18T16:10:29;35.70;;;19.83;;
31674;SDS011;18276;45.520;11.018;2022-12-18T16:12:56;38.95;;;22.17;;
31674;SDS011;18276;45.520;11.018;2022-12-18T16:15:23;49.25;;;23.55;;
31674;SDS011;18276;45.520;11.018;2022-12-18T16:17:50;40.85;;;22.85;;